New Franklin, Pennsylvania
Current Conditions -  °F | °C
As of 1:53 PM on Sunday 21 Dec 2014 (Local Time) from KHGR Reporting Station
Clear Clear  
Wind Chill: 38°   Ceiling: Unl
Heat Index: 38°   Visibility: 9mi
Dew Point: 22°   Wind: 3mph
Humidity: 53%   Direction: 340°NNW
Pressure: 30.27"   Gusts: NA
Location:  39.9438°N, 77.6827°W
Report Text: KHGR 211853Z 34003KT 9SM CLR 03/M06 A3027 RMK AO2 SLP268 T00331056
Loading
Personal Weather Stations






























Interactive Weather Map New forecast layout! Learn more

10-Day Weather Forecast

Advertisements
Track Severe Weather on mobile